createdAt,value
2018-05-11T00:00:49.075Z,19.36
2018-05-11T00:01:48.931Z,19.33
2018-05-11T00:02:49.130Z,19.37
2018-05-11T00:03:48.985Z,19.37
2018-05-11T00:04:49.074Z,19.36
2018-05-11T00:05:48.957Z,19.37
2018-05-11T00:06:48.906Z,19.33
2018-05-11T00:07:49.027Z,19.36
2018-05-11T00:08:48.981Z,19.38
2018-05-11T00:09:49.172Z,19.33
2018-05-11T00:10:49.110Z,19.36
2018-05-11T00:11:49.465Z,19.38
2018-05-11T00:12:48.986Z,19.37
2018-05-11T00:13:48.900Z,19.35
2018-05-11T00:14:49.140Z,19.39
2018-05-11T00:15:49.071Z,19.36
2018-05-11T00:16:49.098Z,19.37
2018-05-11T00:17:49.074Z,19.37
2018-05-11T00:18:48.978Z,19.36
2018-05-11T00:19:48.933Z,19.33
2018-05-11T00:20:48.904Z,19.36
2018-05-11T00:21:49.058Z,19.35
2018-05-11T00:22:48.972Z,19.33
2018-05-11T00:23:48.918Z,19.33
2018-05-11T00:24:49.155Z,19.35
2018-05-11T00:25:49.076Z,19.3
2018-05-11T00:26:49.007Z,19.35
2018-05-11T00:27:48.940Z,19.32
2018-05-11T00:28:49.007Z,19.33
2018-05-11T00:29:49.060Z,19.33
2018-05-11T00:30:49.007Z,19.33
2018-05-11T00:31:49.205Z,19.3
2018-05-11T00:32:48.955Z,19.33
2018-05-11T00:33:49.014Z,19.36
2018-05-11T00:34:48.943Z,19.32
2018-05-11T00:35:49.110Z,19.35
2018-05-11T00:36:49.056Z,19.35
2018-05-11T00:37:49.073Z,19.33
2018-05-11T00:38:49.192Z,19.33
2018-05-11T00:39:48.968Z,19.32
2018-05-11T00:40:49.121Z,19.32
2018-05-11T00:41:48.907Z,19.32
2018-05-11T00:42:49.060Z,19.32
2018-05-11T00:43:48.986Z,19.31
2018-05-11T00:44:49.100Z,19.32
2018-05-11T00:45:49.073Z,19.32
2018-05-11T00:46:49.122Z,19.31
2018-05-11T00:47:49.231Z,19.32
2018-05-11T00:48:48.987Z,19.3
2018-05-11T00:49:49.114Z,19.32
2018-05-11T00:50:48.957Z,19.32
2018-05-11T00:51:48.976Z,19.32
2018-05-11T00:52:48.965Z,19.3
2018-05-11T00:53:49.208Z,19.32
2018-05-11T00:54:49.048Z,19.32
2018-05-11T00:55:49.044Z,19.32
2018-05-11T00:56:49.076Z,19.31
2018-05-11T00:57:49.149Z,19.29
2018-05-11T00:58:49.188Z,19.31
2018-05-11T00:59:49.266Z,19.32
2018-05-11T01:00:49.052Z,19.3
2018-05-11T01:01:49.316Z,19.3
2018-05-11T01:02:49.008Z,19.35
2018-05-11T01:03:49.300Z,19.3
2018-05-11T01:04:49.038Z,19.32
2018-05-11T01:05:48.928Z,19.33
2018-05-11T01:06:49.113Z,19.3
2018-05-11T01:07:49.211Z,19.29
2018-05-11T01:08:49.118Z,19.32
2018-05-11T01:09:48.964Z,19.29
2018-05-11T01:10:49.003Z,19.31
2018-05-11T01:11:48.913Z,19.32
2018-05-11T01:12:49.120Z,19.32
2018-05-11T01:13:48.723Z,19.29
2018-05-11T01:14:49.096Z,19.32
2018-05-11T01:15:48.960Z,19.29
2018-05-11T01:16:49.171Z,19.29
2018-05-11T01:17:49.135Z,19.32
2018-05-11T01:18:49.121Z,19.31
2018-05-11T01:19:49.159Z,19.32
2018-05-11T01:20:49.162Z,19.33
2018-05-11T01:21:49.032Z,19.32
2018-05-11T01:22:49.156Z,19.29
2018-05-11T01:23:48.918Z,19.31
2018-05-11T01:24:48.981Z,19.29
2018-05-11T01:25:48.953Z,19.28
2018-05-11T01:26:49.096Z,19.31
2018-05-11T01:27:49.046Z,19.29
2018-05-11T01:28:49.194Z,19.28
2018-05-11T01:29:49.057Z,19.29
2018-05-11T01:30:48.907Z,19.29
2018-05-11T01:31:49.081Z,19.28
2018-05-11T01:32:48.947Z,19.3
2018-05-11T01:33:49.134Z,19.31
2018-05-11T01:34:48.934Z,19.29
2018-05-11T01:35:49.140Z,19.3
2018-05-11T01:36:49.084Z,19.28
2018-05-11T01:37:48.897Z,19.28
2018-05-11T01:38:49.059Z,19.29
2018-05-11T01:39:49.366Z,19.29
2018-05-11T01:40:49.093Z,19.27
2018-05-11T01:41:49.087Z,19.3
2018-05-11T01:42:48.942Z,19.28
2018-05-11T01:43:49.056Z,19.26
2018-05-11T01:44:49.014Z,19.31
2018-05-11T01:45:49.097Z,19.26
2018-05-11T01:46:48.994Z,19.27
2018-05-11T01:47:49.014Z,19.27
2018-05-11T01:48:49.476Z,19.27
2018-05-11T01:49:49.136Z,19.27
2018-05-11T01:50:48.923Z,19.29
2018-05-11T01:51:48.867Z,19.28
2018-05-11T01:52:49.251Z,19.28
2018-05-11T01:53:49.005Z,19.3
2018-05-11T01:54:49.033Z,19.27
2018-05-11T01:55:48.957Z,19.23
2018-05-11T01:56:48.946Z,19.26
2018-05-11T01:57:49.132Z,19.26
2018-05-11T01:58:48.879Z,19.25
2018-05-11T01:59:48.952Z,19.29
2018-05-11T02:00:48.938Z,19.26
2018-05-11T02:01:49.232Z,19.25
2018-05-11T02:02:48.914Z,19.28
2018-05-11T02:03:48.960Z,19.25
2018-05-11T02:04:49.205Z,19.25
2018-05-11T02:05:49.472Z,19.25
2018-05-11T02:06:49.134Z,19.26
2018-05-11T02:07:49.109Z,19.26
2018-05-11T02:08:48.989Z,19.29
2018-05-11T02:09:49.265Z,19.27
2018-05-11T02:10:49.017Z,19.26
2018-05-11T02:11:49.040Z,19.25
2018-05-11T02:12:48.901Z,19.24
2018-05-11T02:13:49.132Z,19.24
2018-05-11T02:14:48.994Z,19.25
2018-05-11T02:15:49.392Z,19.23
2018-05-11T02:16:49.177Z,19.24
2018-05-11T02:17:48.904Z,19.26
2018-05-11T02:18:48.904Z,19.25
2018-05-11T02:19:48.920Z,19.25
2018-05-11T02:20:49.191Z,19.28
2018-05-11T02:21:49.017Z,19.25
2018-05-11T02:22:49.194Z,19.26
2018-05-11T02:23:48.925Z,19.26
2018-05-11T02:24:48.956Z,19.24
2018-05-11T02:25:49.801Z,19.24
2018-05-11T02:26:48.963Z,19.26
2018-05-11T02:27:49.090Z,19.26
2018-05-11T02:28:49.010Z,19.24
2018-05-11T02:29:49.086Z,19.25
2018-05-11T02:30:48.915Z,19.27
2018-05-11T02:31:49.165Z,19.23
2018-05-11T02:32:49.131Z,19.27
2018-05-11T02:33:48.942Z,19.23
2018-05-11T02:34:49.124Z,19.25
2018-05-11T02:35:49.005Z,19.27
2018-05-11T02:36:49.030Z,19.24
2018-05-11T02:37:49.037Z,19.21
2018-05-11T02:38:49.137Z,19.24
2018-05-11T02:39:49.126Z,19.24
2018-05-11T02:40:48.875Z,19.23
2018-05-11T02:41:49.034Z,19.24
2018-05-11T02:42:49.070Z,19.23
2018-05-11T02:43:48.995Z,19.22
2018-05-11T02:44:48.979Z,19.25
2018-05-11T02:45:49.047Z,19.24
2018-05-11T02:46:49.011Z,19.22
2018-05-11T02:47:48.907Z,19.25
2018-05-11T02:48:48.971Z,19.24
2018-05-11T02:49:48.951Z,19.24
2018-05-11T02:50:48.987Z,19.25
2018-05-11T02:51:49.112Z,19.23
2018-05-11T02:52:49.503Z,19.21
2018-05-11T02:53:49.086Z,19.24
2018-05-11T02:54:49.043Z,19.25
2018-05-11T02:55:49.020Z,19.23
2018-05-11T02:56:49.050Z,19.24
2018-05-11T02:57:49.084Z,19.25
2018-05-11T02:58:49.042Z,19.23
2018-05-11T02:59:48.960Z,19.23
2018-05-11T03:00:48.921Z,19.22
2018-05-11T03:02:20.417Z,19.21
2018-05-11T03:02:49.133Z,19.24
2018-05-11T03:03:48.951Z,19.24
2018-05-11T03:04:49.124Z,19.23
2018-05-11T03:05:48.931Z,19.24
2018-05-11T03:06:49.058Z,19.24
2018-05-11T03:07:49.099Z,19.21
2018-05-11T03:08:49.023Z,19.24
2018-05-11T03:09:48.902Z,19.21
2018-05-11T03:10:49.043Z,19.21
2018-05-11T03:11:49.020Z,19.22
2018-05-11T03:12:48.993Z,19.22
2018-05-11T03:13:48.990Z,19.21
2018-05-11T03:14:49.076Z,19.22
2018-05-11T03:15:48.828Z,19.21
2018-05-11T03:16:49.074Z,19.21
2018-05-11T03:17:49.019Z,19.23
2018-05-11T03:18:49.296Z,19.21
2018-05-11T03:19:49.077Z,19.21
2018-05-11T03:20:49.199Z,19.22
2018-05-11T03:21:49.039Z,19.21
2018-05-11T03:22:48.998Z,19.21
2018-05-11T03:23:49.075Z,19.23
2018-05-11T03:24:49.064Z,19.21
2018-05-11T03:25:48.859Z,19.21
2018-05-11T03:26:48.946Z,19.21
2018-05-11T03:27:49.485Z,19.21
2018-05-11T03:28:48.983Z,19.18
2018-05-11T03:29:49.035Z,19.22
2018-05-11T03:30:48.937Z,19.21
2018-05-11T03:31:49.197Z,19.18
2018-05-11T03:32:49.019Z,19.21
2018-05-11T03:33:48.890Z,19.18
2018-05-11T03:34:48.950Z,19.17
2018-05-11T03:35:49.035Z,19.22
2018-05-11T03:36:49.096Z,19.18
2018-05-11T03:37:49.329Z,19.17
2018-05-11T03:38:48.957Z,19.18
2018-05-11T03:39:48.970Z,19.17
2018-05-11T03:40:49.068Z,19.16
2018-05-11T03:41:49.011Z,19.21
2018-05-11T03:42:49.219Z,19.17
2018-05-11T03:43:49.138Z,19.18
2018-05-11T03:44:48.971Z,19.21
2018-05-11T03:45:49.095Z,19.17
2018-05-11T03:46:48.827Z,19.2
2018-05-11T03:47:49.010Z,19.21
2018-05-11T03:48:49.123Z,19.2
2018-05-11T03:49:48.948Z,19.18
2018-05-11T03:50:48.862Z,19.2
2018-05-11T03:51:48.977Z,19.18
2018-05-11T03:52:48.882Z,19.16
2018-05-11T03:53:48.866Z,19.18
2018-05-11T03:54:48.968Z,19.16
2018-05-11T03:55:48.971Z,19.15
2018-05-11T03:56:48.974Z,19.18
2018-05-11T03:57:49.308Z,19.17
2018-05-11T03:58:49.014Z,19.16
2018-05-11T03:59:49.234Z,19.18
2018-05-11T04:00:48.841Z,19.16
2018-05-11T04:01:49.036Z,19.16
2018-05-11T04:02:48.864Z,19.21
2018-05-11T04:03:48.853Z,19.16
2018-05-11T04:04:49.014Z,19.17
2018-05-11T04:05:48.954Z,19.21
2018-05-11T04:06:49.076Z,19.17
2018-05-11T04:07:48.823Z,19.16
2018-05-11T04:08:48.882Z,19.18
2018-05-11T04:09:48.966Z,19.18
2018-05-11T04:10:49.125Z,19.18
2018-05-11T04:11:49.072Z,19.2
2018-05-11T04:12:49.145Z,19.17
2018-05-11T04:13:49.209Z,19.16
2018-05-11T04:14:48.882Z,19.16
2018-05-11T04:15:48.902Z,19.18
2018-05-11T04:16:49.106Z,19.16
2018-05-11T04:17:48.965Z,19.17
2018-05-11T04:18:49.070Z,19.15
2018-05-11T04:19:48.999Z,19.14
2018-05-11T04:20:49.293Z,19.16
2018-05-11T04:21:48.950Z,19.15
2018-05-11T04:22:48.969Z,19.15
2018-05-11T04:23:48.859Z,19.17
2018-05-11T04:24:48.929Z,19.16
2018-05-11T04:25:49.241Z,19.15
2018-05-11T04:26:48.942Z,19.17
2018-05-11T04:27:49.044Z,19.16
2018-05-11T04:28:48.897Z,19.15
2018-05-11T04:29:48.819Z,19.17
2018-05-11T04:30:49.069Z,19.17
2018-05-11T04:31:48.996Z,19.14
2018-05-11T04:32:48.827Z,19.18
2018-05-11T04:33:49.020Z,19.17
2018-05-11T04:34:49.160Z,19.14
2018-05-11T04:35:48.839Z,19.17
2018-05-11T04:36:49.054Z,19.16
2018-05-11T04:37:48.895Z,19.14
2018-05-11T04:38:49.185Z,19.17
2018-05-11T04:39:48.881Z,19.15
2018-05-11T04:40:49.010Z,19.13
2018-05-11T04:41:48.941Z,19.16
2018-05-11T04:42:48.863Z,19.15
2018-05-11T04:43:49.033Z,19.15
2018-05-11T04:44:49.064Z,19.17
2018-05-11T04:45:48.885Z,19.16
2018-05-11T04:46:49.054Z,19.15
2018-05-11T04:47:49.004Z,19.16
2018-05-11T04:48:48.914Z,19.16
2018-05-11T04:49:48.892Z,19.13
2018-05-11T04:50:49.063Z,19.15
2018-05-11T04:51:48.934Z,19.14
2018-05-11T04:52:49.026Z,19.13
2018-05-11T04:53:49.152Z,19.16
2018-05-11T04:54:49.041Z,19.16
2018-05-11T04:55:49.109Z,19.14
2018-05-11T04:56:48.872Z,19.16
2018-05-11T04:57:48.981Z,19.14
2018-05-11T04:58:49.002Z,19.15
2018-05-11T04:59:49.098Z,19.14
2018-05-11T05:00:48.913Z,19.12
2018-05-11T05:01:48.926Z,19.13
2018-05-11T05:02:48.936Z,19.15
2018-05-11T05:03:48.895Z,19.14
2018-05-11T05:04:48.920Z,19.15
2018-05-11T05:05:48.830Z,19.15
2018-05-11T05:06:49.115Z,19.16
2018-05-11T05:07:48.915Z,19.14
2018-05-11T05:08:48.999Z,19.15
2018-05-11T05:09:48.972Z,19.16
2018-05-11T05:10:48.905Z,19.14
2018-05-11T05:11:48.949Z,19.17
2018-05-11T05:12:48.795Z,19.16
2018-05-11T05:13:48.990Z,19.16
2018-05-11T05:14:48.941Z,19.17
2018-05-11T05:15:48.872Z,19.17
2018-05-11T05:16:49.025Z,19.14
2018-05-11T05:17:48.890Z,19.15
2018-05-11T05:18:48.951Z,19.16
2018-05-11T05:19:49.116Z,19.14
2018-05-11T05:20:48.942Z,19.17
2018-05-11T05:21:49.084Z,19.16
2018-05-11T05:22:48.914Z,19.14
2018-05-11T05:23:48.971Z,19.17
2018-05-11T05:24:48.856Z,19.16
2018-05-11T05:25:49.328Z,19.16
2018-05-11T05:26:49.278Z,19.17
2018-05-11T05:27:48.951Z,19.15
2018-05-11T05:28:49.085Z,19.13
2018-05-11T05:29:48.914Z,19.16
2018-05-11T05:30:49.028Z,19.16
2018-05-11T05:31:48.855Z,19.15
2018-05-11T05:32:48.880Z,19.16
2018-05-11T05:33:48.947Z,19.17
2018-05-11T05:34:48.922Z,19.14
2018-05-11T05:35:49.003Z,19.17
2018-05-11T05:36:49.055Z,19.16
2018-05-11T05:37:49.002Z,19.15
2018-05-11T05:38:48.899Z,19.16
2018-05-11T05:39:48.985Z,19.14
2018-05-11T05:40:49.015Z,19.14
2018-05-11T05:41:48.915Z,19.17
2018-05-11T05:42:49.108Z,19.16
2018-05-11T05:43:48.930Z,19.13
2018-05-11T05:44:48.916Z,19.15
2018-05-11T05:45:49.314Z,19.13
2018-05-11T05:46:49.056Z,19.12
2018-05-11T05:47:49.056Z,19.15
2018-05-11T05:48:48.931Z,19.14
2018-05-11T05:49:49.077Z,19.14
2018-05-11T05:50:48.942Z,19.14
2018-05-11T05:51:48.976Z,19.17
2018-05-11T05:52:48.866Z,19.13
2018-05-11T05:53:49.055Z,19.15
2018-05-11T05:54:49.032Z,19.15
2018-05-11T05:55:49.044Z,19.16
2018-05-11T05:56:48.927Z,19.14
2018-05-11T05:57:48.930Z,19.14
2018-05-11T05:58:48.812Z,19.13
2018-05-11T05:59:49.008Z,19.14
2018-05-11T06:00:48.819Z,19.14
2018-05-11T06:01:48.980Z,19.13
2018-05-11T06:02:49.130Z,19.15
2018-05-11T06:03:48.960Z,19.13
2018-05-11T06:04:48.889Z,19.17
2018-05-11T06:05:48.945Z,19.17
2018-05-11T06:06:48.820Z,19.14
2018-05-11T06:07:48.969Z,19.14
2018-05-11T06:08:48.923Z,19.15
2018-05-11T06:09:48.901Z,19.16
2018-05-11T06:10:49.625Z,19.15
2018-05-11T06:11:48.946Z,19.16
2018-05-11T06:12:48.977Z,19.15
2018-05-11T06:13:48.793Z,19.15
2018-05-11T06:14:48.899Z,19.16
2018-05-11T06:15:48.887Z,19.13
2018-05-11T06:16:49.008Z,19.14
2018-05-11T06:17:49.006Z,19.16
2018-05-11T06:18:49.108Z,19.15
2018-05-11T06:19:48.959Z,19.16
2018-05-11T06:20:48.907Z,19.17
2018-05-11T06:21:48.956Z,19.15
2018-05-11T06:22:49.334Z,19.14
2018-05-11T06:23:49.028Z,19.17
2018-05-11T06:24:49.511Z,19.16
2018-05-11T06:25:48.924Z,19.14
2018-05-11T06:26:49.283Z,19.18
2018-05-11T06:27:58.894Z,19.16
2018-05-11T06:28:48.999Z,19.13
2018-05-11T06:29:48.895Z,19.17
2018-05-11T06:30:49.076Z,19.15
2018-05-11T06:31:48.904Z,19.15
2018-05-11T06:32:49.084Z,19.18
2018-05-11T06:33:48.894Z,19.16
2018-05-11T06:34:48.955Z,19.16
2018-05-11T06:35:49.493Z,19.15
2018-05-11T06:36:48.862Z,19.13
2018-05-11T06:37:48.838Z,19.13
2018-05-11T06:38:48.994Z,19.15
2018-05-11T06:39:49.064Z,19.16
2018-05-11T06:40:48.844Z,19.14
2018-05-11T06:41:49.008Z,19.17
2018-05-11T06:42:49.074Z,19.15
2018-05-11T06:43:48.856Z,19.14
2018-05-11T06:44:48.974Z,19.16
2018-05-11T06:45:49.009Z,19.16
2018-05-11T06:46:49.178Z,19.13
2018-05-11T06:47:48.910Z,19.17
2018-05-11T06:48:48.952Z,19.13
2018-05-11T06:49:49.035Z,19.13
2018-05-11T06:50:49.076Z,19.14
2018-05-11T06:51:49.041Z,19.15
2018-05-11T06:52:48.831Z,19.15
2018-05-11T06:53:49.009Z,19.16
2018-05-11T06:54:48.995Z,19.15
2018-05-11T06:55:49.274Z,19.15
2018-05-11T06:56:49.501Z,19.16
2018-05-11T06:57:48.851Z,19.15
2018-05-11T06:58:51.482Z,19.13
2018-05-11T06:59:48.920Z,19.16
2018-05-11T07:00:49.108Z,19.13
2018-05-11T07:01:48.904Z,19.13
2018-05-11T07:02:49.120Z,19.14
2018-05-11T07:03:49.007Z,19.13
2018-05-11T07:04:48.930Z,19.13
2018-05-11T07:05:48.795Z,19.16
2018-05-11T07:06:48.974Z,19.15
2018-05-11T07:07:49.870Z,19.14
2018-05-11T07:08:48.902Z,19.16
2018-05-11T07:09:49.036Z,19.13
2018-05-11T07:10:48.962Z,19.14
2018-05-11T07:11:49.042Z,19.16
2018-05-11T07:12:48.806Z,19.14
2018-05-11T07:13:48.861Z,19.14
2018-05-11T07:14:48.825Z,19.16
2018-05-11T07:15:49.676Z,19.14
2018-05-11T07:16:49.059Z,19.12
2018-05-11T07:17:48.888Z,19.15
2018-05-11T07:18:48.855Z,19.13
2018-05-11T07:19:49.068Z,19.11
2018-05-11T07:20:48.932Z,19.16
2018-05-11T07:21:48.879Z,19.15
2018-05-11T07:22:49.367Z,19.13
2018-05-11T07:23:48.930Z,19.13
2018-05-11T07:24:48.934Z,19.14
2018-05-11T07:25:49.441Z,19.12
2018-05-11T07:26:48.994Z,19.15
2018-05-11T07:27:48.947Z,19.14
2018-05-11T07:28:49.192Z,19.12
2018-05-11T07:29:48.842Z,19.16
2018-05-11T07:30:49.114Z,19.12
2018-05-11T07:31:48.878Z,19.1
2018-05-11T07:32:48.930Z,19.13
2018-05-11T07:33:49.031Z,19.13
2018-05-11T07:34:49.163Z,19.11
2018-05-11T07:35:49.091Z,19.13
2018-05-11T07:36:48.935Z,19.12
2018-05-11T07:37:48.951Z,19.12
2018-05-11T07:38:48.972Z,19.15
2018-05-11T07:39:48.948Z,19.13
2018-05-11T07:40:48.934Z,19.11
2018-05-11T07:41:48.885Z,19.15
2018-05-11T07:42:49.008Z,19.11
2018-05-11T07:43:48.945Z,19.09
2018-05-11T07:44:49.162Z,19.15
2018-05-11T07:45:49.018Z,19.16
2018-05-11T07:46:48.919Z,19.16
2018-05-11T07:47:49.020Z,19.21
2018-05-11T07:48:49.064Z,19.24
2018-05-11T07:49:49.194Z,19.22
2018-05-11T07:50:48.807Z,19.22
2018-05-11T07:51:48.830Z,19.25
2018-05-11T07:52:48.896Z,19.21
2018-05-11T07:53:48.800Z,19.24
2018-05-11T07:54:48.999Z,19.23
2018-05-11T07:55:48.973Z,19.21
2018-05-11T07:56:48.821Z,19.21
2018-05-11T07:57:48.926Z,19.23
2018-05-11T07:58:48.820Z,19.22
2018-05-11T07:59:49.022Z,19.24
2018-05-11T08:00:48.791Z,19.22
2018-05-11T08:01:49.164Z,19.2
2018-05-11T08:02:48.833Z,19.25
2018-05-11T08:03:49.246Z,19.22
2018-05-11T08:04:48.977Z,19.2
2018-05-11T08:05:49.021Z,19.21
2018-05-11T08:06:49.074Z,19.21
2018-05-11T08:07:48.791Z,19.2
2018-05-11T08:08:48.975Z,19.22
2018-05-11T08:09:48.832Z,19.22
2018-05-11T08:10:49.017Z,19.21
2018-05-11T08:11:48.990Z,19.21
2018-05-11T08:12:48.795Z,19.22
2018-05-11T08:13:48.994Z,19.2
2018-05-11T08:14:48.796Z,19.22
2018-05-11T08:15:48.829Z,19.21
2018-05-11T08:16:49.048Z,19.21
2018-05-11T08:17:48.912Z,19.22
2018-05-11T08:18:49.538Z,19.18
2018-05-11T08:19:48.979Z,19.21
2018-05-11T08:20:49.209Z,19.22
2018-05-11T08:21:49.385Z,19.22
2018-05-11T08:22:48.780Z,19.21
2018-05-11T08:23:48.828Z,19.22
2018-05-11T08:24:48.898Z,19.22
2018-05-11T08:25:49.004Z,19.21
2018-05-11T08:26:49.660Z,19.21
2018-05-11T08:27:48.985Z,19.22
2018-05-11T08:28:58.914Z,19.2
2018-05-11T08:29:48.845Z,19.21
2018-05-11T08:30:48.901Z,19.2
2018-05-11T08:31:49.001Z,19.18
2018-05-11T08:32:48.821Z,19.21
2018-05-11T08:33:48.907Z,19.2
2018-05-11T08:34:49.016Z,19.21
2018-05-11T08:35:49.674Z,19.21
2018-05-11T08:36:49.044Z,19.21
2018-05-11T08:37:48.907Z,19.17
2018-05-11T08:38:48.879Z,19.2
2018-05-11T08:39:48.868Z,19.15
2018-05-11T08:40:48.803Z,19.17
2018-05-11T08:41:48.850Z,19.18
2018-05-11T08:42:48.844Z,19.17
2018-05-11T08:43:49.063Z,19.17
2018-05-11T08:44:48.928Z,19.18
2018-05-11T08:45:48.991Z,19.2
2018-05-11T08:46:48.990Z,19.17
2018-05-11T08:47:48.896Z,19.13
2018-05-11T08:48:48.822Z,19.09
2018-05-11T08:49:48.942Z,19.09
2018-05-11T08:50:48.985Z,19.09
2018-05-11T08:51:49.180Z,19.09
2018-05-11T08:52:48.843Z,19.12
2018-05-11T08:53:48.927Z,19.16
2018-05-11T08:54:48.823Z,19.17
2018-05-11T08:55:49.313Z,19.13
2018-05-11T08:56:48.819Z,19.18
2018-05-11T08:57:49.020Z,19.16
2018-05-11T08:58:49.020Z,19.17
2018-05-11T08:59:48.955Z,19.21
2018-05-11T09:00:48.902Z,19.2
2018-05-11T09:01:49.036Z,19.17
2018-05-11T09:02:48.852Z,19.2
2018-05-11T09:03:48.895Z,19.2
2018-05-11T09:04:48.855Z,19.2
2018-05-11T09:05:48.794Z,19.21
2018-05-11T09:06:48.929Z,19.21
2018-05-11T09:07:48.903Z,19.18
2018-05-11T09:08:48.929Z,19.21
2018-05-11T09:09:49.121Z,19.23
2018-05-11T09:10:48.994Z,19.21
2018-05-11T09:11:48.889Z,19.22
2018-05-11T09:12:48.889Z,19.18
2018-05-11T09:13:48.901Z,19.21
2018-05-11T09:14:48.916Z,19.21
2018-05-11T09:15:49.010Z,19.21
2018-05-11T09:16:48.858Z,19.18
2018-05-11T09:17:48.819Z,19.22
2018-05-11T09:18:49.044Z,19.21
2018-05-11T09:19:49.055Z,19.2
2018-05-11T09:20:48.822Z,19.22
2018-05-11T09:21:48.856Z,19.21
2018-05-11T09:22:48.875Z,19.2
2018-05-11T09:23:48.874Z,19.21
2018-05-11T09:24:48.976Z,19.22
2018-05-11T09:25:48.796Z,19.21
2018-05-11T09:26:48.845Z,19.24
2018-05-11T09:27:48.855Z,19.21
2018-05-11T09:28:48.888Z,19.21
2018-05-11T09:29:48.933Z,19.23
2018-05-11T09:30:48.953Z,19.2
2018-05-11T09:31:49.151Z,19.21
2018-05-11T09:32:48.841Z,19.22
2018-05-11T09:33:49.032Z,19.21
2018-05-11T09:34:48.795Z,19.21
2018-05-11T09:35:48.851Z,19.22
2018-05-11T09:36:48.971Z,19.2
2018-05-11T09:37:48.977Z,19.18
2018-05-11T09:38:48.939Z,19.22
2018-05-11T09:39:49.533Z,19.17
2018-05-11T09:40:48.988Z,19.17
2018-05-11T09:41:48.950Z,19.22
2018-05-11T09:42:14.179Z,19.3
2018-05-11T09:43:14.351Z,19.37
2018-05-11T09:44:14.481Z,19.39
2018-05-11T09:45:14.363Z,19.42
2018-05-11T09:46:14.251Z,19.43
2018-05-11T09:47:14.247Z,19.47
2018-05-11T09:48:14.243Z,19.5
2018-05-11T09:49:14.388Z,19.51
2018-05-11T09:50:14.359Z,19.54
2018-05-11T09:51:14.262Z,19.54
2018-05-11T09:52:24.255Z,19.57
2018-05-11T09:53:14.398Z,19.56
2018-05-11T09:54:14.250Z,19.56
2018-05-11T09:55:14.384Z,19.55
2018-05-11T09:56:14.406Z,19.58
2018-05-11T09:57:14.187Z,19.59
2018-05-11T09:58:14.263Z,19.58
2018-05-11T09:59:14.207Z,19.58
2018-05-11T10:00:14.409Z,19.61
2018-05-11T10:01:14.227Z,19.61
2018-05-11T10:02:14.234Z,19.61
2018-05-11T10:03:14.321Z,19.62
2018-05-11T10:04:14.209Z,19.62
2018-05-11T10:05:14.253Z,19.6
2018-05-11T10:06:14.298Z,19.6
2018-05-11T10:07:14.359Z,19.6
2018-05-11T10:08:14.479Z,19.98
2018-05-11T10:09:14.417Z,19.82
2018-05-11T10:10:14.387Z,20.09
2018-05-11T10:11:14.248Z,20.04
2018-05-11T10:12:14.386Z,19.97
2018-05-11T10:13:14.284Z,19.94
2018-05-11T10:14:14.248Z,19.89
2018-05-11T10:15:14.480Z,19.88
2018-05-11T10:16:14.280Z,19.88
2018-05-11T10:17:14.342Z,19.85
2018-05-11T10:18:14.423Z,19.83
2018-05-11T10:19:14.348Z,19.82
2018-05-11T10:20:14.368Z,19.81
2018-05-11T10:21:14.261Z,19.79
2018-05-11T10:22:14.431Z,19.79
2018-05-11T10:23:14.177Z,19.79
2018-05-11T10:24:14.283Z,19.79
2018-05-11T10:25:14.215Z,19.8
2018-05-11T10:26:14.325Z,19.8
2018-05-11T10:27:14.445Z,19.82
2018-05-11T10:28:14.512Z,19.79
2018-05-11T10:29:14.352Z,19.8
2018-05-11T10:30:14.335Z,19.84
2018-05-11T10:31:14.295Z,19.82
2018-05-11T10:32:14.192Z,19.85
2018-05-11T10:33:14.758Z,19.83
2018-05-11T10:34:14.407Z,19.85
2018-05-11T10:35:14.230Z,19.85
2018-05-11T10:36:14.210Z,19.86
2018-05-11T10:37:14.291Z,19.86
2018-05-11T10:38:14.300Z,19.86
2018-05-11T10:39:14.343Z,19.85
2018-05-11T10:40:14.377Z,19.87
2018-05-11T10:41:14.291Z,19.84
2018-05-11T10:42:14.308Z,19.86
2018-05-11T10:43:14.253Z,19.87
2018-05-11T10:44:14.355Z,19.86
2018-05-11T10:45:14.370Z,19.9
2018-05-11T10:46:14.147Z,19.88
2018-05-11T10:47:14.198Z,19.89
2018-05-11T10:48:14.255Z,19.91
2018-05-11T10:49:14.250Z,19.95
2018-05-11T10:50:14.288Z,19.96
2018-05-11T10:51:14.272Z,19.95
2018-05-11T10:52:14.328Z,19.95
2018-05-11T10:53:14.337Z,19.95
2018-05-11T10:54:14.728Z,19.94
2018-05-11T10:55:14.336Z,19.96
2018-05-11T10:56:14.294Z,19.96
2018-05-11T10:57:14.309Z,19.95
2018-05-11T10:58:14.473Z,19.96
2018-05-11T10:59:14.292Z,19.96
2018-05-11T11:00:14.234Z,19.95
2018-05-11T11:01:24.418Z,20.17
2018-05-11T11:02:14.389Z,20.16
2018-05-11T11:03:14.425Z,20.16
2018-05-11T11:04:14.374Z,20.1
2018-05-11T11:05:14.396Z,20.11
2018-05-11T11:05:54.949Z,20.11
2018-05-11T11:06:17.268Z,20.09
2018-05-11T11:07:17.398Z,20.1
2018-05-11T11:08:17.382Z,20.09
2018-05-11T11:09:17.348Z,20.09
2018-05-11T11:10:17.446Z,20.05
2018-05-11T11:11:17.330Z,20.05
2018-05-11T11:12:17.346Z,20.05
2018-05-11T11:13:00.630Z,20.06
2018-05-11T11:14:00.918Z,20.03
2018-05-11T11:15:01.053Z,20.04
2018-05-11T11:16:00.891Z,20.05
2018-05-11T11:17:00.858Z,20.04
2018-05-11T11:18:01.907Z,20.05
2018-05-11T11:19:01.085Z,20.05
2018-05-11T11:20:01.465Z,20.06
2018-05-11T11:21:01.218Z,20.03
2018-05-11T11:22:00.958Z,20.05
2018-05-11T11:23:00.855Z,20.04
2018-05-11T11:24:00.374Z,20.04
2018-05-11T11:25:00.256Z,20.07
2018-05-11T11:26:00.811Z,20.04
2018-05-11T11:27:00.338Z,20.04
2018-05-11T11:28:00.250Z,20.05
2018-05-11T11:29:00.372Z,20.07
2018-05-11T11:30:00.415Z,20.06
2018-05-11T11:31:00.335Z,20.07
2018-05-11T11:32:00.345Z,20.07
2018-05-11T11:33:00.449Z,20.05
2018-05-11T11:34:00.434Z,20.07
2018-05-11T11:34:35.003Z,20.07
2018-05-11T11:35:35.084Z,20.06
2018-05-11T11:36:34.901Z,20.04
2018-05-11T11:37:34.867Z,20.06
2018-05-11T11:38:34.903Z,20.07
2018-05-11T11:39:34.713Z,20.06
2018-05-11T11:40:49.279Z,20.09
2018-05-11T11:41:49.696Z,20.06
2018-05-11T11:42:49.291Z,20.11
2018-05-11T11:43:57.054Z,20.09
2018-05-11T11:44:57.139Z,20.11
2018-05-11T11:45:57.089Z,20.12
2018-05-11T11:46:57.200Z,20.1
2018-05-11T11:47:56.978Z,20.09
2018-05-11T11:48:57.047Z,20.07
2018-05-11T11:49:56.990Z,20.04
2018-05-11T11:50:57.035Z,20.02
2018-05-11T11:51:57.194Z,20.02
2018-05-11T11:52:56.917Z,19.99
2018-05-11T11:53:57.131Z,19.99
2018-05-11T11:54:57.022Z,19.98
2018-05-11T11:55:57.154Z,19.98
2018-05-11T11:56:57.284Z,19.94
2018-05-11T11:57:56.948Z,19.95
2018-05-11T11:58:57.229Z,19.94
2018-05-11T11:59:57.040Z,19.94
2018-05-11T12:00:57.174Z,19.92
2018-05-11T12:01:57.492Z,19.94
2018-05-11T12:02:57.322Z,19.91
2018-05-11T12:03:57.339Z,19.92
2018-05-11T12:04:57.151Z,19.88
2018-05-11T12:05:57.085Z,19.88
2018-05-11T12:06:57.289Z,19.88
2018-05-11T12:07:57.089Z,19.87
2018-05-11T12:08:57.436Z,19.89
2018-05-11T12:09:57.347Z,19.89
2018-05-11T12:10:57.135Z,19.87
2018-05-11T12:11:57.081Z,19.87
2018-05-11T12:12:57.121Z,19.85
2018-05-11T12:13:57.160Z,19.86
2018-05-11T12:14:57.334Z,19.87
2018-05-11T12:15:57.038Z,19.86
2018-05-11T12:16:57.089Z,19.88
2018-05-11T12:17:57.199Z,19.87
2018-05-11T12:18:57.090Z,19.86
2018-05-11T12:19:57.119Z,19.86
2018-05-11T12:20:57.013Z,19.86
2018-05-11T12:21:57.249Z,19.84
2018-05-11T12:22:56.959Z,19.82
2018-05-11T12:23:57.208Z,19.82
2018-05-11T12:24:57.280Z,19.82
2018-05-11T12:25:57.120Z,19.81
2018-05-11T12:26:57.034Z,19.81
2018-05-11T12:27:57.171Z,19.79
2018-05-11T12:28:56.948Z,19.79
2018-05-11T12:29:56.996Z,19.79
2018-05-11T12:30:56.911Z,19.77
2018-05-11T12:31:56.947Z,19.77
2018-05-11T12:32:57.060Z,19.79
2018-05-11T12:33:57.074Z,19.74
2018-05-11T12:34:57.574Z,19.75
2018-05-11T12:35:57.125Z,19.74
2018-05-11T19:00:52.873Z,16.98
2018-05-11T19:01:53.013Z,17.09
2018-05-11T19:03:02.982Z,17.24
2018-05-11T19:03:52.888Z,17.38
2018-05-11T19:04:53.040Z,17.52
2018-05-11T19:05:53.015Z,17.68
2018-05-11T19:06:53.043Z,17.82
2018-05-11T19:07:52.935Z,17.95
2018-05-11T19:08:53.425Z,18.07
2018-05-11T19:09:52.981Z,18.19
2018-05-11T19:10:52.997Z,18.29
2018-05-11T19:11:53.139Z,18.4
2018-05-11T19:12:53.272Z,18.48
2018-05-11T19:13:53.218Z,18.57
2018-05-11T19:14:52.814Z,18.68
2018-05-11T19:15:52.974Z,18.77
2018-05-11T19:16:52.981Z,18.85